Time;durP1;ratioP1;P1;durP2;ratioP2;P2;SDS_P1;SDS_P2;PMS_P1;PMS_P2;Temp;Humidity;BMP_temperature;BMP_pressure;BME280_temperature;BME280_humidity;BME280_pressure;Samples;Min_cycle;Max_cycle;Signal;HPM_P1;HPM_P2
2022/03/20 00:00:45;;;;;;;29.70;15.18;;;;;;;;;;5012065;28;20200;-73
2022/03/20 00:03:14;;;;;;;18.88;13.85;;;;;;;;;;5012335;28;20216;-75
2022/03/20 00:05:42;;;;;;;19.55;14.57;;;;;;;;;;5013688;28;20219;-74
2022/03/20 00:08:11;;;;;;;21.60;15.88;;;;;;;;;;5003537;28;21059;-75
2022/03/20 00:10:38;;;;;;;18.98;15.60;;;;;;;;;;4999433;28;20246;-75
2022/03/20 00:13:08;;;;;;;19.35;13.98;;;;;;;;;;4993752;28;20224;-75
2022/03/20 00:15:35;;;;;;;22.75;15.60;;;;;;;;;;4991522;28;20666;-75
2022/03/20 00:18:03;;;;;;;22.10;15.70;;;;;;;;;;4991904;28;20205;-75
2022/03/20 00:20:35;;;;;;;25.65;16.00;;;;;;;;;;4991068;28;20617;-74
2022/03/20 00:23:04;;;;;;;22.98;14.93;;;;;;;;;;4993264;28;20710;-73
2022/03/20 00:25:31;;;;;;;22.70;16.25;;;;;;;;;;5013165;28;20303;-74
2022/03/20 00:27:58;;;;;;;21.90;15.95;;;;;;;;;;5013075;28;20550;-74
2022/03/20 00:30:27;;;;;;;22.58;15.30;;;;;;;;;;5006456;28;20208;-76
2022/03/20 00:32:54;;;;;;;20.40;14.88;;;;;;;;;;4999065;28;20231;-73
2022/03/20 00:35:21;;;;;;;19.58;14.77;;;;;;;;;;4994462;28;20249;-76
2022/03/20 00:37:49;;;;;;;15.77;13.07;;;;;;;;;;4991452;28;20211;-75
2022/03/20 00:40:16;;;;;;;21.90;15.18;;;;;;;;;;4991208;28;20219;-75
2022/03/20 00:42:43;;;;;;;19.65;15.23;;;;;;;;;;4991244;28;20585;-75
2022/03/20 00:45:10;;;;;;;17.83;13.90;;;;;;;;;;4991818;28;20236;-75
2022/03/20 00:47:39;;;;;;;22.80;15.43;;;;;;;;;;4975812;28;20204;-74
2022/03/20 00:50:10;;;;;;;19.65;14.48;;;;;;;;;;4993295;28;20212;-74
2022/03/20 00:52:37;;;;;;;18.58;14.13;;;;;;;;;;4977382;28;20227;-75
2022/03/20 00:55:04;;;;;;;20.58;14.60;;;;;;;;;;4998332;28;20562;-74
2022/03/20 00:57:31;;;;;;;21.50;15.35;;;;;;;;;;5003491;28;20200;-74
2022/03/20 00:59:59;;;;;;;20.63;15.05;;;;;;;;;;5011016;28;20299;-76
2022/03/20 01:02:26;;;;;;;19.13;13.93;;;;;;;;;;5010910;28;20224;-75
2022/03/20 01:04:54;;;;;;;18.25;14.40;;;;;;;;;;5010826;28;20211;-75
2022/03/20 01:07:21;;;;;;;22.73;14.15;;;;;;;;;;5011252;28;20246;-74
2022/03/20 01:09:48;;;;;;;21.20;13.90;;;;;;;;;;5011813;28;20226;-74
2022/03/20 01:12:16;;;;;;;20.15;13.82;;;;;;;;;;5012556;28;20227;-74
2022/03/20 01:14:43;;;;;;;21.77;14.20;;;;;;;;;;5011183;28;20228;-74
2022/03/20 01:17:10;;;;;;;23.00;13.75;;;;;;;;;;4998507;28;20204;-75
2022/03/20 01:19:37;;;;;;;17.65;14.38;;;;;;;;;;5000832;28;20206;-74
2022/03/20 01:22:06;;;;;;;20.55;13.60;;;;;;;;;;5009804;28;20282;-76
2022/03/20 01:24:33;;;;;;;17.90;13.60;;;;;;;;;;5010317;28;20211;-75
2022/03/20 01:27:01;;;;;;;21.80;15.05;;;;;;;;;;5010755;28;20208;-75
2022/03/20 01:29:28;;;;;;;17.60;14.15;;;;;;;;;;5014043;28;20207;-75
2022/03/20 01:31:55;;;;;;;16.00;13.00;;;;;;;;;;5015406;28;20223;-76
2022/03/20 01:34:23;;;;;;;20.15;13.93;;;;;;;;;;5016193;28;20281;-74
2022/03/20 01:36:50;;;;;;;19.90;13.45;;;;;;;;;;5016219;28;20212;-75
2022/03/20 01:39:18;;;;;;;20.40;13.93;;;;;;;;;;5003586;28;20205;-74
2022/03/20 01:41:47;;;;;;;20.98;14.70;;;;;;;;;;5002161;28;20212;-75
2022/03/20 01:44:14;;;;;;;20.10;13.80;;;;;;;;;;4994347;28;20200;-75
2022/03/20 01:46:41;;;;;;;18.98;14.43;;;;;;;;;;4976957;28;20663;-74
2022/03/20 01:49:09;;;;;;;24.13;14.30;;;;;;;;;;4994567;28;20577;-75
2022/03/20 01:54:20;;;;;;;18.52;13.20;;;;;;;;;;5002080;28;20239;-75
2022/03/20 01:56:49;;;;;;;19.23;14.70;;;;;;;;;;5016071;28;20207;-75
2022/03/20 01:59:17;;;;;;;16.42;13.23;;;;;;;;;;5015888;28;20199;-74
2022/03/20 02:01:44;;;;;;;20.15;14.15;;;;;;;;;;5004055;28;20690;-73
2022/03/20 02:04:13;;;;;;;19.85;13.88;;;;;;;;;;5001439;28;20651;-75
2022/03/20 02:06:41;;;;;;;21.65;14.40;;;;;;;;;;5012991;28;20212;-74
2022/03/20 02:09:08;;;;;;;21.58;12.85;;;;;;;;;;5013822;28;20203;-74
2022/03/20 02:11:36;;;;;;;27.38;13.70;;;;;;;;;;5013727;28;20239;-74
2022/03/20 02:14:04;;;;;;;17.95;13.80;;;;;;;;;;5014050;28;20228;-73
2022/03/20 02:16:31;;;;;;;18.85;14.68;;;;;;;;;;5014714;28;20215;-73
2022/03/20 02:18:58;;;;;;;21.88;14.50;;;;;;;;;;5016296;28;20203;-74
2022/03/20 02:21:41;;;;;;;19.70;13.35;;;;;;;;;;5016010;28;20226;-74
2022/03/20 02:24:23;;;;;;;21.40;14.20;;;;;;;;;;5002489;28;20701;-75
2022/03/20 02:26:51;;;;;;;18.65;13.40;;;;;;;;;;5000159;28;20203;-73
2022/03/20 02:29:18;;;;;;;19.15;13.95;;;;;;;;;;5012938;28;20215;-74
2022/03/20 02:31:46;;;;;;;16.92;13.35;;;;;;;;;;5013198;28;20208;-74
2022/03/20 02:34:13;;;;;;;17.45;13.63;;;;;;;;;;5013369;28;20224;-73
2022/03/20 02:36:40;;;;;;;18.73;14.02;;;;;;;;;;5013903;28;20204;-75
2022/03/20 02:39:07;;;;;;;20.98;14.43;;;;;;;;;;5013425;28;20200;-75
2022/03/20 02:41:34;;;;;;;19.55;13.10;;;;;;;;;;5014949;28;20209;-74
2022/03/20 02:44:03;;;;;;;15.82;12.63;;;;;;;;;;5015302;28;20200;-75
2022/03/20 02:46:31;;;;;;;16.88;12.35;;;;;;;;;;5005395;28;20204;-74
2022/03/20 02:49:00;;;;;;;21.20;14.70;;;;;;;;;;5000951;28;20207;-75
2022/03/20 02:51:27;;;;;;;19.25;14.35;;;;;;;;;;5010327;28;20210;-74
2022/03/20 02:53:55;;;;;;;16.85;13.63;;;;;;;;;;5012470;28;20696;-74
2022/03/20 02:56:23;;;;;;;20.10;14.00;;;;;;;;;;5013188;28;20779;-75
2022/03/20 02:58:50;;;;;;;17.90;14.20;;;;;;;;;;5013474;28;20558;-74
2022/03/20 03:01:18;;;;;;;17.83;13.65;;;;;;;;;;5012939;28;20207;-74
2022/03/20 03:03:46;;;;;;;18.50;13.70;;;;;;;;;;5014850;28;20231;-73
2022/03/20 03:06:13;;;;;;;20.48;14.20;;;;;;;;;;5014632;28;20230;-74
2022/03/20 03:11:22;;;;;;;20.52;14.07;;;;;;;;;;5000189;28;20196;-74
2022/03/20 03:13:49;;;;;;;18.48;14.77;;;;;;;;;;5008734;28;20720;-74
2022/03/20 03:16:17;;;;;;;19.65;14.95;;;;;;;;;;5013093;28;20199;-73
2022/03/20 03:18:46;;;;;;;18.95;14.15;;;;;;;;;;5011137;28;20200;-74
2022/03/20 03:21:14;;;;;;;20.23;13.80;;;;;;;;;;5011338;28;20680;-74
2022/03/20 03:23:42;;;;;;;20.42;14.07;;;;;;;;;;5011339;28;20228;-75
2022/03/20 03:26:09;;;;;;;17.67;13.57;;;;;;;;;;5014350;28;20208;-74
2022/03/20 03:28:36;;;;;;;22.48;14.20;;;;;;;;;;5014440;28;20214;-74
2022/03/20 03:31:05;;;;;;;21.02;14.70;;;;;;;;;;5007373;28;20673;-74
2022/03/20 03:33:32;;;;;;;21.67;14.23;;;;;;;;;;4998308;28;20278;-74
2022/03/20 03:36:01;;;;;;;18.58;14.60;;;;;;;;;;4995165;28;20681;-74
2022/03/20 03:38:30;;;;;;;21.55;14.27;;;;;;;;;;4992571;28;20307;-74
2022/03/20 03:40:57;;;;;;;18.13;13.77;;;;;;;;;;4992451;28;20254;-74
2022/03/20 03:43:25;;;;;;;21.23;15.38;;;;;;;;;;4992441;28;20562;-74
2022/03/20 03:45:53;;;;;;;19.30;14.75;;;;;;;;;;4993098;28;20682;-76
2022/03/20 03:51:03;;;;;;;21.27;14.23;;;;;;;;;;4974688;28;20240;-75
2022/03/20 03:53:30;;;;;;;22.50;14.13;;;;;;;;;;4977534;28;20224;-74
2022/03/20 03:55:57;;;;;;;18.38;13.90;;;;;;;;;;4986589;28;20223;-74
2022/03/20 03:58:24;;;;;;;21.10;13.55;;;;;;;;;;4989537;28;20389;-74
2022/03/20 04:00:51;;;;;;;21.50;15.70;;;;;;;;;;4989475;28;20216;-74
2022/03/20 04:03:18;;;;;;;20.73;15.02;;;;;;;;;;4989792;28;20713;-74
2022/03/20 04:05:46;;;;;;;23.50;14.68;;;;;;;;;;4989636;28;20197;-74
2022/03/20 04:08:15;;;;;;;23.17;15.40;;;;;;;;;;4993631;28;20220;-75
2022/03/20 04:10:42;;;;;;;23.98;15.20;;;;;;;;;;5013750;28;20199;-74
2022/03/20 04:13:09;;;;;;;22.02;15.80;;;;;;;;;;5005948;28;20223;-73
2022/03/20 04:15:38;;;;;;;23.13;14.43;;;;;;;;;;4999424;28;20224;-74
2022/03/20 04:18:05;;;;;;;21.48;15.77;;;;;;;;;;4994517;28;20205;-76
2022/03/20 04:20:33;;;;;;;21.92;15.25;;;;;;;;;;4991842;28;20200;-74
2022/03/20 04:25:43;;;;;;;24.90;15.77;;;;;;;;;;4990959;28;20199;-74
2022/03/20 04:28:11;;;;;;;19.85;15.13;;;;;;;;;;4991981;28;20207;-75
2022/03/20 04:30:38;;;;;;;20.52;15.55;;;;;;;;;;4993541;28;20630;-75
2022/03/20 04:33:05;;;;;;;21.65;15.95;;;;;;;;;;4993428;28;20244;-74
2022/03/20 04:35:32;;;;;;;21.98;16.35;;;;;;;;;;4995921;28;20795;-75
2022/03/20 04:38:00;;;;;;;21.15;15.07;;;;;;;;;;4998877;28;20204;-73
2022/03/20 04:40:27;;;;;;;19.88;14.57;;;;;;;;;;4995033;28;20268;-75
2022/03/20 04:42:57;;;;;;;19.55;15.27;;;;;;;;;;4990509;28;20327;-75
2022/03/20 04:45:26;;;;;;;23.83;15.82;;;;;;;;;;4991031;28;20570;-74
2022/03/20 04:58:40;;;;;;;25.33;16.83;;;;;;;;;;5010048;28;20615;-75
2022/03/20 05:01:08;;;;;;;22.23;15.75;;;;;;;;;;5013507;28;20204;-74
2022/03/20 05:03:35;;;;;;;22.35;14.63;;;;;;;;;;4994262;28;20219;-76
2022/03/20 05:06:05;;;;;;;26.13;16.50;;;;;;;;;;5011150;28;20203;-75
2022/03/20 05:08:32;;;;;;;19.35;15.75;;;;;;;;;;5011774;28;20684;-74
2022/03/20 05:13:41;;;;;;;25.33;16.58;;;;;;;;;;5011585;28;20591;-77
2022/03/20 05:16:09;;;;;;;23.65;16.23;;;;;;;;;;4998977;28;20224;-74
2022/03/20 05:18:36;;;;;;;24.23;16.05;;;;;;;;;;4998442;28;20775;-75
2022/03/20 05:21:04;;;;;;;26.45;17.70;;;;;;;;;;4990631;28;20633;-76
2022/03/20 05:23:31;;;;;;;22.15;16.10;;;;;;;;;;4990678;28;20241;-74
2022/03/20 05:25:58;;;;;;;24.17;16.20;;;;;;;;;;4991247;28;20227;-76
2022/03/20 05:28:25;;;;;;;23.60;16.70;;;;;;;;;;4991371;28;20677;-76
2022/03/20 05:30:54;;;;;;;24.88;18.10;;;;;;;;;;4999206;28;20206;-74
2022/03/20 05:33:22;;;;;;;22.85;15.68;;;;;;;;;;5007762;28;20578;-74
2022/03/20 05:35:49;;;;;;;22.23;16.42;;;;;;;;;;4998362;28;20221;-75
2022/03/20 05:38:16;;;;;;;21.05;16.30;;;;;;;;;;4994821;28;20224;-75
2022/03/20 05:40:44;;;;;;;25.83;17.10;;;;;;;;;;4990911;28;20231;-74
2022/03/20 05:43:11;;;;;;;25.33;16.52;;;;;;;;;;4973527;28;20229;-75
2022/03/20 05:45:39;;;;;;;26.40;17.05;;;;;;;;;;4991088;28;20205;-74
2022/03/20 05:48:09;;;;;;;23.77;17.10;;;;;;;;;;4991495;28;20707;-75
2022/03/20 05:50:36;;;;;;;23.80;17.55;;;;;;;;;;4992120;28;20200;-75
2022/03/20 05:53:03;;;;;;;26.90;16.35;;;;;;;;;;4992972;28;20229;-75
2022/03/20 05:58:13;;;;;;;25.40;18.40;;;;;;;;;;4997162;28;20649;-75
2022/03/20 06:00:42;;;;;;;23.48;16.75;;;;;;;;;;4992012;28;20208;-75
2022/03/20 06:03:11;;;;;;;28.40;17.10;;;;;;;;;;4990481;28;20264;-75
2022/03/20 06:05:38;;;;;;;24.02;17.10;;;;;;;;;;4990751;28;20685;-79
2022/03/20 06:08:06;;;;;;;27.40;17.52;;;;;;;;;;4974089;28;20565;-78
2022/03/20 06:10:34;;;;;;;23.73;17.88;;;;;;;;;;4993611;28;20212;-77
2022/03/20 06:13:01;;;;;;;27.58;18.58;;;;;;;;;;5011905;28;20231;-77
2022/03/20 06:15:28;;;;;;;24.02;17.27;;;;;;;;;;4997846;28;20278;-78
2022/03/20 06:17:57;;;;;;;26.08;18.38;;;;;;;;;;5006589;28;20219;-78
2022/03/20 06:20:26;;;;;;;23.98;16.63;;;;;;;;;;5001184;28;20205;-78
2022/03/20 06:22:53;;;;;;;23.23;17.35;;;;;;;;;;4991147;28;20260;-78
2022/03/20 06:25:20;;;;;;;23.58;17.73;;;;;;;;;;4989130;28;20205;-76
2022/03/20 06:27:48;;;;;;;22.80;16.70;;;;;;;;;;4993681;28;20616;-76
2022/03/20 06:30:16;;;;;;;25.52;18.02;;;;;;;;;;4976140;28;20215;-77
2022/03/20 06:32:43;;;;;;;21.38;17.33;;;;;;;;;;4976891;28;20240;-78
2022/03/20 06:35:11;;;;;;;22.42;16.73;;;;;;;;;;5000369;28;20218;-80
2022/03/20 06:37:41;;;;;;;24.65;17.35;;;;;;;;;;5000067;28;20193;-77
2022/03/20 06:40:08;;;;;;;26.33;18.63;;;;;;;;;;4992742;28;20578;-76
2022/03/20 06:42:36;;;;;;;27.15;17.88;;;;;;;;;;4993083;28;20694;-77
2022/03/20 06:45:04;;;;;;;26.10;19.17;;;;;;;;;;4993323;28;20204;-78
2022/03/20 06:47:32;;;;;;;24.80;18.90;;;;;;;;;;4976645;28;20251;-77
2022/03/20 06:49:59;;;;;;;23.00;17.85;;;;;;;;;;5003156;28;20228;-76
2022/03/20 06:52:28;;;;;;;24.17;17.58;;;;;;;;;;5006774;28;20740;-77
2022/03/20 06:54:58;;;;;;;24.60;19.40;;;;;;;;;;5000086;28;20269;-77
2022/03/20 06:57:26;;;;;;;24.38;17.92;;;;;;;;;;4978371;28;20666;-77
2022/03/20 06:59:53;;;;;;;25.83;17.70;;;;;;;;;;4992701;28;20299;-77
2022/03/20 07:02:21;;;;;;;26.35;20.05;;;;;;;;;;4992765;28;20228;-77
2022/03/20 07:04:48;;;;;;;29.27;19.50;;;;;;;;;;4993363;28;20200;-76
2022/03/20 07:07:16;;;;;;;28.67;20.33;;;;;;;;;;4993628;28;20429;-77
2022/03/20 07:09:43;;;;;;;27.33;18.15;;;;;;;;;;4995504;28;20282;-77
2022/03/20 07:12:12;;;;;;;28.40;19.95;;;;;;;;;;5000491;28;20216;-74
2022/03/20 07:14:40;;;;;;;26.63;18.15;;;;;;;;;;5003605;28;20661;-74
2022/03/20 07:17:07;;;;;;;28.70;19.15;;;;;;;;;;5012585;28;20234;-73
2022/03/20 07:19:35;;;;;;;28.02;20.13;;;;;;;;;;5011325;28;20211;-73
2022/03/20 07:22:02;;;;;;;27.00;17.90;;;;;;;;;;5011798;28;20230;-74
2022/03/20 07:24:29;;;;;;;24.77;18.33;;;;;;;;;;4994388;28;20200;-74
2022/03/20 07:29:39;;;;;;;25.52;18.30;;;;;;;;;;4998888;28;20193;-75
2022/03/20 07:32:07;;;;;;;29.15;20.15;;;;;;;;;;5002671;28;20612;-74
2022/03/20 07:34:35;;;;;;;31.08;19.55;;;;;;;;;;5011526;28;20697;-74
2022/03/20 07:37:03;;;;;;;26.67;18.75;;;;;;;;;;5008663;28;20208;-75
2022/03/20 07:39:31;;;;;;;29.35;18.73;;;;;;;;;;4982820;28;20196;-74
2022/03/20 07:41:58;;;;;;;30.77;20.47;;;;;;;;;;5013063;28;20231;-74
2022/03/20 07:44:25;;;;;;;31.27;20.97;;;;;;;;;;4981415;28;20455;-74
2022/03/20 07:46:54;;;;;;;25.95;19.52;;;;;;;;;;4995096;28;20456;-74
2022/03/20 07:49:21;;;;;;;27.88;19.92;;;;;;;;;;4999497;28;20204;-73
2022/03/20 07:51:48;;;;;;;30.00;19.98;;;;;;;;;;5005666;28;20220;-74
2022/03/20 07:54:16;;;;;;;26.08;20.23;;;;;;;;;;5011452;28;20684;-74
2022/03/20 07:56:43;;;;;;;25.70;19.30;;;;;;;;;;4978841;28;20216;-73
2022/03/20 07:59:11;;;;;;;29.48;21.02;;;;;;;;;;4975134;28;20201;-73
2022/03/20 08:01:39;;;;;;;28.77;20.35;;;;;;;;;;5004169;28;20208;-73
2022/03/20 08:04:07;;;;;;;29.75;20.73;;;;;;;;;;4995435;28;20200;-74
2022/03/20 08:06:34;;;;;;;26.88;19.67;;;;;;;;;;5013559;28;20219;-73
2022/03/20 08:09:02;;;;;;;24.23;19.13;;;;;;;;;;5012254;28;20204;-73
2022/03/20 08:11:29;;;;;;;30.33;20.77;;;;;;;;;;4999043;28;20222;-74
2022/03/20 08:13:57;;;;;;;30.20;19.52;;;;;;;;;;4996956;28;20840;-74
2022/03/20 08:16:26;;;;;;;28.33;20.47;;;;;;;;;;4974382;28;20596;-75
2022/03/20 08:18:53;;;;;;;26.80;19.60;;;;;;;;;;5005039;28;20454;-75
2022/03/20 08:21:22;;;;;;;27.00;20.50;;;;;;;;;;4993784;28;20447;-75
2022/03/20 08:23:49;;;;;;;28.67;20.50;;;;;;;;;;5011200;28;20847;-74
2022/03/20 08:26:17;;;;;;;27.70;20.33;;;;;;;;;;5002536;28;20455;-76
2022/03/20 08:28:45;;;;;;;29.93;20.73;;;;;;;;;;4993666;28;20494;-74
2022/03/20 08:31:12;;;;;;;29.77;21.93;;;;;;;;;;4993509;28;20546;-76
2022/03/20 08:33:40;;;;;;;32.90;22.30;;;;;;;;;;4999174;28;20478;-73
2022/03/20 08:36:07;;;;;;;29.00;22.00;;;;;;;;;;4998011;28;20479;-74
2022/03/20 08:38:39;;;;;;;30.03;21.73;;;;;;;;;;4990662;28;20823;-74
2022/03/20 08:41:06;;;;;;;32.23;21.57;;;;;;;;;;4990893;28;20913;-75
2022/03/20 08:43:33;;;;;;;28.70;22.43;;;;;;;;;;4991330;28;20463;-74
2022/03/20 08:46:01;;;;;;;30.37;21.93;;;;;;;;;;5003132;28;20979;-73
2022/03/20 08:48:28;;;;;;;28.47;21.17;;;;;;;;;;5011723;28;20489;-72
2022/03/20 08:50:55;;;;;;;30.43;23.10;;;;;;;;;;5012705;28;20443;-76
2022/03/20 08:53:22;;;;;;;32.00;21.60;;;;;;;;;;4995052;28;20467;-74
2022/03/20 08:55:51;;;;;;;28.27;21.50;;;;;;;;;;4996670;28;20479;-74
2022/03/20 08:58:18;;;;;;;31.50;22.20;;;;;;;;;;4998441;28;20453;-73
2022/03/20 09:00:46;;;;;;;30.87;22.03;;;;;;;;;;4991766;28;20463;-74
2022/03/20 09:03:13;;;;;;;32.80;21.83;;;;;;;;;;4973318;28;20470;-75
2022/03/20 09:05:40;;;;;;;27.33;20.27;;;;;;;;;;4990868;28;20920;-74
2022/03/20 09:08:08;;;;;;;31.87;23.80;;;;;;;;;;4974429;28;20209;-73
2022/03/20 09:10:35;;;;;;;33.87;23.40;;;;;;;;;;4996134;28;20455;-74
2022/03/20 09:13:03;;;;;;;27.40;21.57;;;;;;;;;;5012506;28;20858;-74
2022/03/20 09:15:31;;;;;;;34.90;22.43;;;;;;;;;;4994920;28;20478;-76
2022/03/20 09:20:41;;;;;;;29.73;22.77;;;;;;;;;;4996731;28;20423;-74
2022/03/20 09:23:09;;;;;;;29.50;22.70;;;;;;;;;;5008086;28;20475;-74
2022/03/20 09:25:36;;;;;;;28.70;21.30;;;;;;;;;;5006378;28;20458;-76
2022/03/20 09:28:05;;;;;;;29.03;21.70;;;;;;;;;;5009790;28;20453;-74
2022/03/20 09:30:33;;;;;;;31.00;23.60;;;;;;;;;;4987335;28;20467;-74
2022/03/20 09:33:02;;;;;;;30.00;22.47;;;;;;;;;;5009649;28;20487;-74
2022/03/20 09:35:30;;;;;;;32.00;23.13;;;;;;;;;;5003403;28;21293;-74
2022/03/20 09:37:57;;;;;;;31.20;23.23;;;;;;;;;;4979589;28;20455;-74
2022/03/20 09:40:24;;;;;;;30.40;23.77;;;;;;;;;;5008419;28;20929;-76
2022/03/20 09:42:52;;;;;;;30.40;23.37;;;;;;;;;;5003994;28;20471;-73
2022/03/20 09:45:21;;;;;;;29.83;22.93;;;;;;;;;;4990603;28;20498;-73
2022/03/20 09:47:48;;;;;;;32.80;23.00;;;;;;;;;;4991110;28;20443;-74
2022/03/20 09:50:17;;;;;;;29.93;22.90;;;;;;;;;;5006773;28;20455;-75
2022/03/20 09:52:44;;;;;;;27.67;21.80;;;;;;;;;;5000413;28;20475;-76
2022/03/20 09:55:12;;;;;;;36.37;23.73;;;;;;;;;;5006083;28;20462;-75
2022/03/20 09:57:39;;;;;;;34.77;24.33;;;;;;;;;;5013254;28;20497;-73
2022/03/20 10:00:11;;;;;;;28.37;22.13;;;;;;;;;;5013991;28;20944;-74
2022/03/20 10:02:40;;;;;;;29.40;23.00;;;;;;;;;;5013077;28;20589;-75
2022/03/20 10:05:08;;;;;;;30.17;22.93;;;;;;;;;;4997420;28;20447;-75
2022/03/20 10:07:36;;;;;;;30.70;23.13;;;;;;;;;;5014092;28;20480;-76
2022/03/20 10:10:11;;;;;;;29.63;22.87;;;;;;;;;;5015947;28;20447;-74
2022/03/20 10:12:40;;;;;;;32.13;23.10;;;;;;;;;;4996940;28;20485;-73
2022/03/20 10:15:10;;;;;;;32.80;23.27;;;;;;;;;;5002223;28;20446;-75
2022/03/20 10:17:39;;;;;;;29.20;23.77;;;;;;;;;;4998784;28;20475;-73
2022/03/20 10:20:14;;;;;;;32.70;24.37;;;;;;;;;;4994036;28;20510;-78
2022/03/20 10:22:42;;;;;;;29.63;22.47;;;;;;;;;;5008142;28;20829;-74
2022/03/20 10:25:11;;;;;;;30.50;23.13;;;;;;;;;;5013330;28;20458;-73
2022/03/20 10:27:38;;;;;;;31.80;23.73;;;;;;;;;;5013390;28;20948;-77
2022/03/20 10:30:09;;;;;;;31.20;24.10;;;;;;;;;;4994978;28;20451;-75
2022/03/20 10:32:36;;;;;;;33.67;22.60;;;;;;;;;;5003439;28;20605;-73
2022/03/20 10:35:06;;;;;;;31.23;23.77;;;;;;;;;;5009288;28;20443;-76
2022/03/20 10:37:48;;;;;;;33.13;23.60;;;;;;;;;;4995417;28;20972;-74
2022/03/20 10:40:16;;;;;;;30.00;22.70;;;;;;;;;;4997314;28;20450;-77
2022/03/20 10:42:45;;;;;;;33.30;24.43;;;;;;;;;;5013654;28;20459;-77
2022/03/20 10:45:12;;;;;;;32.77;24.40;;;;;;;;;;4995749;28;20454;-76
2022/03/20 10:47:39;;;;;;;32.97;23.27;;;;;;;;;;5002881;28;20465;-76
2022/03/20 10:50:09;;;;;;;31.10;24.23;;;;;;;;;;5014133;28;20457;-76
2022/03/20 10:52:37;;;;;;;32.07;23.00;;;;;;;;;;4995721;28;20467;-76
2022/03/20 10:55:08;;;;;;;29.97;23.57;;;;;;;;;;5000304;28;21391;-75
2022/03/20 10:57:36;;;;;;;32.83;24.77;;;;;;;;;;4987037;28;20482;-77
2022/03/20 11:00:05;;;;;;;29.57;23.90;;;;;;;;;;5012750;28;21193;-78
2022/03/20 11:02:32;;;;;;;32.83;24.00;;;;;;;;;;5013259;28;20551;-77
2022/03/20 11:04:59;;;;;;;28.93;23.53;;;;;;;;;;5012340;28;20459;-77
2022/03/20 11:07:27;;;;;;;32.60;23.53;;;;;;;;;;5013488;28;20933;-79
2022/03/20 11:09:55;;;;;;;33.10;24.80;;;;;;;;;;5012915;28;20465;-76
2022/03/20 11:12:24;;;;;;;28.57;23.77;;;;;;;;;;5014602;28;20463;-74
2022/03/20 11:14:54;;;;;;;34.03;25.27;;;;;;;;;;5013489;28;20497;-75
2022/03/20 11:17:22;;;;;;;31.60;24.00;;;;;;;;;;5002977;28;20502;-74
2022/03/20 11:19:51;;;;;;;34.70;24.50;;;;;;;;;;4982144;28;20894;-75
2022/03/20 11:22:20;;;;;;;30.20;23.50;;;;;;;;;;5011062;28;20859;-74
2022/03/20 11:24:49;;;;;;;36.23;26.63;;;;;;;;;;5011733;28;20509;-74
2022/03/20 11:27:20;;;;;;;30.00;23.90;;;;;;;;;;5011313;28;20446;-73
2022/03/20 11:29:49;;;;;;;32.17;24.30;;;;;;;;;;5012698;28;20435;-75
2022/03/20 11:32:17;;;;;;;32.43;24.30;;;;;;;;;;5006267;28;20484;-73
2022/03/20 11:34:46;;;;;;;30.63;24.17;;;;;;;;;;5003641;28;20468;-74
2022/03/20 11:37:15;;;;;;;32.67;23.13;;;;;;;;;;4999563;28;20530;-74
2022/03/20 11:40:02;;;;;;;32.70;24.17;;;;;;;;;;4993044;28;20801;-73
2022/03/20 11:42:31;;;;;;;26.60;22.50;;;;;;;;;;4987146;28;20920;-74
2022/03/20 11:45:10;;;;;;;30.60;23.27;;;;;;;;;;5012475;28;20861;-73
2022/03/20 11:47:38;;;;;;;30.20;23.50;;;;;;;;;;5012146;28;20537;-75
2022/03/20 11:50:14;;;;;;;33.00;23.73;;;;;;;;;;4995100;28;20459;-73
2022/03/20 11:52:57;;;;;;;28.67;22.10;;;;;;;;;;5011026;28;20478;-74
2022/03/20 11:55:26;;;;;;;27.93;23.40;;;;;;;;;;4997403;28;20462;-73
2022/03/20 11:57:55;;;;;;;27.50;22.53;;;;;;;;;;4985164;28;20478;-74
2022/03/20 12:00:25;;;;;;;31.17;23.93;;;;;;;;;;4996507;28;20460;-73
2022/03/20 12:03:00;;;;;;;28.10;22.20;;;;;;;;;;5007574;28;20476;-74
2022/03/20 12:05:39;;;;;;;30.07;23.40;;;;;;;;;;5009327;28;20928;-74
2022/03/20 12:08:15;;;;;;;30.40;24.10;;;;;;;;;;5011627;28;20445;-74
2022/03/20 12:10:47;;;;;;;29.83;23.27;;;;;;;;;;5004852;28;20463;-74
2022/03/20 12:13:18;;;;;;;28.07;22.57;;;;;;;;;;4986178;28;20483;-73
2022/03/20 12:15:46;;;;;;;30.60;23.73;;;;;;;;;;4996612;28;20463;-74
2022/03/20 12:18:13;;;;;;;28.87;23.43;;;;;;;;;;5006447;28;20969;-74
2022/03/20 12:21:02;;;;;;;30.67;22.50;;;;;;;;;;5011141;28;20469;-74
2022/03/20 12:23:38;;;;;;;34.17;24.90;;;;;;;;;;5011125;28;20485;-74
2022/03/20 12:26:19;;;;;;;32.30;23.80;;;;;;;;;;4993627;28;20450;-74
2022/03/20 12:28:48;;;;;;;26.97;22.80;;;;;;;;;;5002904;28;20471;-73
2022/03/20 12:31:25;;;;;;;28.67;21.70;;;;;;;;;;4995617;28;20831;-74
2022/03/20 12:34:06;;;;;;;27.47;20.50;;;;;;;;;;5002928;28;20469;-73
2022/03/20 12:36:34;;;;;;;27.13;22.20;;;;;;;;;;4983704;28;20478;-73
2022/03/20 12:39:01;;;;;;;27.13;22.17;;;;;;;;;;4997697;28;20440;-74
2022/03/20 12:41:28;;;;;;;30.00;22.40;;;;;;;;;;5005601;28;20462;-74
2022/03/20 12:43:59;;;;;;;31.10;22.80;;;;;;;;;;5009336;28;20443;-73
2022/03/20 12:46:26;;;;;;;28.17;22.40;;;;;;;;;;5006173;28;20439;-74
2022/03/20 12:48:54;;;;;;;37.03;23.67;;;;;;;;;;5010879;28;20443;-74
2022/03/20 12:51:31;;;;;;;28.50;23.10;;;;;;;;;;5008881;28;20463;-75
2022/03/20 12:54:02;;;;;;;32.10;23.10;;;;;;;;;;4976160;28;20439;-74
2022/03/20 12:56:31;;;;;;;28.27;21.93;;;;;;;;;;4992446;28;20554;-75
2022/03/20 12:59:00;;;;;;;31.47;21.20;;;;;;;;;;4994921;28;20831;-74
2022/03/20 13:01:36;;;;;;;32.40;23.87;;;;;;;;;;4997366;28;21000;-73
2022/03/20 13:04:14;;;;;;;29.80;22.43;;;;;;;;;;5008335;28;20426;-73
2022/03/20 13:06:41;;;;;;;30.70;22.07;;;;;;;;;;5009921;28;20427;-73
2022/03/20 13:09:12;;;;;;;29.47;23.00;;;;;;;;;;5010147;28;20897;-73
2022/03/20 13:14:23;;;;;;;27.07;21.50;;;;;;;;;;4992162;28;21024;-73
2022/03/20 13:16:51;;;;;;;28.37;22.00;;;;;;;;;;4976798;28;20503;-73
2022/03/20 13:19:26;;;;;;;30.87;21.93;;;;;;;;;;4983686;28;20439;-73
2022/03/20 13:21:54;;;;;;;24.53;20.70;;;;;;;;;;5003251;28;21027;-74
2022/03/20 13:24:28;;;;;;;29.27;22.20;;;;;;;;;;4997999;28;20447;-74
2022/03/20 13:26:57;;;;;;;23.33;19.57;;;;;;;;;;4994920;28;20443;-73
2022/03/20 13:29:25;;;;;;;27.33;21.10;;;;;;;;;;4999461;28;20496;-74
2022/03/20 13:32:08;;;;;;;24.93;20.50;;;;;;;;;;5013330;28;20466;-73
2022/03/20 13:34:41;;;;;;;28.57;21.27;;;;;;;;;;4999350;28;20517;-73
2022/03/20 13:37:10;;;;;;;21.97;19.53;;;;;;;;;;5008064;28;20487;-73
2022/03/20 13:39:37;;;;;;;28.00;21.30;;;;;;;;;;4998244;28;20505;-73
2022/03/20 13:42:19;;;;;;;23.47;19.00;;;;;;;;;;5000237;28;20991;-74
2022/03/20 13:44:48;;;;;;;22.80;18.80;;;;;;;;;;4994523;28;20529;-74
2022/03/20 13:47:16;;;;;;;29.70;19.83;;;;;;;;;;5011936;28;20505;-74
2022/03/20 13:49:44;;;;;;;26.43;19.37;;;;;;;;;;5013169;28;20923;-73
2022/03/20 13:52:12;;;;;;;26.20;20.10;;;;;;;;;;5013759;28;20971;-73
2022/03/20 13:54:40;;;;;;;26.03;19.43;;;;;;;;;;5010076;28;20458;-73
2022/03/20 13:57:09;;;;;;;27.40;19.57;;;;;;;;;;4997496;28;20491;-73
2022/03/20 13:59:49;;;;;;;25.00;19.37;;;;;;;;;;5000737;28;20444;-74
2022/03/20 14:02:16;;;;;;;26.00;21.70;;;;;;;;;;4987511;28;20955;-73
2022/03/20 14:04:44;;;;;;;24.10;18.30;;;;;;;;;;5011305;28;20449;-73
2022/03/20 14:07:18;;;;;;;25.90;20.73;;;;;;;;;;5013356;28;20450;-73
2022/03/20 14:09:46;;;;;;;25.00;20.30;;;;;;;;;;5010440;28;20670;-74
2022/03/20 14:12:28;;;;;;;23.20;19.33;;;;;;;;;;4993733;28;20491;-74
2022/03/20 14:14:58;;;;;;;21.20;18.10;;;;;;;;;;4980402;28;20863;-73
2022/03/20 14:17:40;;;;;;;21.93;17.00;;;;;;;;;;4999791;28;20485;-73
2022/03/20 14:20:09;;;;;;;21.30;17.20;;;;;;;;;;4992877;28;20480;-74
2022/03/20 14:22:45;;;;;;;19.23;16.97;;;;;;;;;;5000368;28;20545;-74
2022/03/20 14:25:23;;;;;;;22.87;18.90;;;;;;;;;;4995755;28;20447;-74
2022/03/20 14:27:58;;;;;;;23.33;17.47;;;;;;;;;;4996784;28;20473;-74
2022/03/20 14:41:20;;;;;;;22.40;17.40;;;;;;;;;;5013223;28;20518;-75
2022/03/20 14:43:48;;;;;;;22.93;18.13;;;;;;;;;;5003854;28;20467;-74
2022/03/20 14:46:16;;;;;;;23.23;18.30;;;;;;;;;;5000793;28;20451;-75
2022/03/20 14:48:44;;;;;;;27.30;19.67;;;;;;;;;;5012553;28;20445;-76
2022/03/20 14:51:11;;;;;;;23.93;18.60;;;;;;;;;;5011874;28;20553;-75
2022/03/20 14:53:40;;;;;;;24.30;19.30;;;;;;;;;;5013065;28;20469;-75
2022/03/20 14:56:08;;;;;;;24.80;19.03;;;;;;;;;;5013717;28;20462;-74
2022/03/20 14:58:35;;;;;;;23.30;18.40;;;;;;;;;;5012253;28;20541;-75
2022/03/20 15:01:02;;;;;;;26.00;20.00;;;;;;;;;;5012468;28;20469;-75
2022/03/20 15:03:31;;;;;;;26.10;20.30;;;;;;;;;;5014951;28;20469;-74
2022/03/20 15:05:58;;;;;;;27.17;21.00;;;;;;;;;;5007418;28;20459;-76
2022/03/20 15:13:47;;;;;;;26.50;20.70;;;;;;;;;;5010630;28;20454;-76
2022/03/20 15:16:14;;;;;;;22.50;19.93;;;;;;;;;;5012518;28;20442;-75